Time;durP1;ratioP1;P1;durP2;ratioP2;P2;SDS_P1;SDS_P2;PMS_P1;PMS_P2;Temp;Humidity;BMP_temperature;BMP_pressure;BME280_temperature;BME280_humidity;BME280_pressure;Samples;Min_cycle;Max_cycle;Signal;HPM_P1;HPM_P2
2022/04/01 00:02:22;;;;;;;34.20;6.78;;;;;;;15.25;54.98;63570.94;5046554;28;20237;-84
2022/04/01 00:04:51;;;;;;;24.25;5.15;;;;;;;15.24;55.42;63572.97;5041583;28;20208;-85
2022/04/01 00:07:18;;;;;;;25.25;5.05;;;;;;;15.31;54.75;63580.25;5054224;28;20260;-84
2022/04/01 00:09:45;;;;;;;25.35;5.97;;;;;;;15.28;53.99;63579.19;5053490;28;20228;-85
2022/04/01 00:12:12;;;;;;;21.90;7.25;;;;;;;15.33;53.45;63577.19;5052652;28;20281;-84
2022/04/01 00:14:40;;;;;;;28.77;6.10;;;;;;;15.47;53.14;63602.03;5048263;28;20199;-84
2022/04/01 00:17:07;;;;;;;25.33;7.13;;;;;;;15.47;53.28;63594.34;5047276;28;20228;-83
2022/04/01 00:19:34;;;;;;;29.48;6.20;;;;;;;15.26;58.25;63575.06;5052744;28;20474;-83
2022/04/01 00:22:02;;;;;;;18.98;5.72;;;;;;;15.27;59.87;63575.59;5050270;28;20260;-83
2022/04/01 00:24:29;;;;;;;26.15;6.32;;;;;;;15.10;61.78;63557.91;5056230;28;20232;-83
2022/04/01 00:26:56;;;;;;;27.75;5.93;;;;;;;14.75;64.73;63522.59;5058072;28;20245;-84
2022/04/01 00:29:23;;;;;;;29.05;6.75;;;;;;;14.47;66.59;63496.06;5057481;28;20271;-83
2022/04/01 00:31:58;;;;;;;28.65;5.40;;;;;;;14.34;67.54;63477.44;5057588;28;20233;-83
2022/04/01 00:34:26;;;;;;;22.92;4.88;;;;;;;14.16;69.29;63458.22;5040415;28;20229;-83
2022/04/01 00:36:53;;;;;;;13.30;3.97;;;;;;;14.00;70.72;63439.03;5032492;28;20274;-83
2022/04/01 00:39:23;;;;;;;26.75;6.53;;;;;;;13.96;65.50;63440.00;5050020;28;20479;-83
2022/04/01 00:41:51;;;;;;;29.70;5.43;;;;;;;13.93;67.71;63429.22;5052395;28;20414;-83
2022/04/01 00:44:21;;;;;;;25.42;6.05;;;;;;;13.77;68.48;63420.81;5053716;28;20214;-83
2022/04/01 00:46:49;;;;;;;30.17;6.97;;;;;;;13.61;66.14;63397.06;5052679;28;20241;-84
2022/04/01 00:49:17;;;;;;;31.20;6.97;;;;;;;13.93;61.34;63434.84;5051426;28;20277;-84
2022/04/01 00:51:46;;;;;;;38.10;7.10;;;;;;;14.05;60.08;63447.31;5052569;28;20232;-84
2022/04/01 00:54:13;;;;;;;29.88;7.00;;;;;;;14.43;57.92;63486.78;5053286;28;20544;-84
2022/04/01 00:56:42;;;;;;;35.22;7.13;;;;;;;14.56;57.39;63500.31;5053886;28;20499;-83
2022/04/01 00:59:09;;;;;;;36.03;6.93;;;;;;;14.78;56.41;63522.63;5048219;28;20202;-82
2022/04/01 01:01:39;;;;;;;33.08;7.00;;;;;;;14.90;56.40;63533.06;5052440;28;20205;-84
2022/04/01 01:04:08;;;;;;;43.17;8.10;;;;;;;14.97;56.29;63539.78;5053189;28;20269;-83
2022/04/01 01:06:39;;;;;;;31.08;8.90;;;;;;;15.07;56.15;63552.75;5050484;28;20194;-83
2022/04/01 01:09:06;;;;;;;36.97;7.60;;;;;;;15.04;56.52;63549.63;5037412;28;20241;-84
2022/04/01 01:11:34;;;;;;;24.92;7.30;;;;;;;14.95;56.06;63540.81;5053180;28;20197;-83
2022/04/01 01:14:03;;;;;;;42.83;7.97;;;;;;;15.11;55.70;63558.94;5052137;28;20205;-83
2022/04/01 01:16:31;;;;;;;34.55;6.57;;;;;;;15.07;56.08;63555.84;5048807;28;20205;-82
2022/04/01 01:19:03;;;;;;;46.60;6.85;;;;;;;15.08;56.28;63553.78;5037489;28;20281;-83
2022/04/01 01:21:31;;;;;;;32.65;8.00;;;;;;;15.13;56.10;63553.88;5029603;28;20221;-84
2022/04/01 01:24:03;;;;;;;29.80;6.88;;;;;;;15.06;56.03;63551.72;5042223;28;20240;-83
2022/04/01 01:26:32;;;;;;;41.65;7.43;;;;;;;14.98;57.26;63543.41;5049236;28;20225;-82
2022/04/01 01:29:00;;;;;;;31.38;6.43;;;;;;;14.88;58.15;63535.56;5049923;28;20220;-85
2022/04/01 01:31:28;;;;;;;30.42;7.00;;;;;;;14.80;58.80;63527.78;5049722;28;20198;-83
2022/04/01 01:33:57;;;;;;;29.95;7.72;;;;;;;14.55;59.49;63501.28;5049237;28;20391;-84
2022/04/01 01:36:31;;;;;;;38.42;7.30;;;;;;;14.55;60.32;63498.72;5046425;28;20202;-82
2022/04/01 01:38:58;;;;;;;40.33;7.80;;;;;;;14.58;60.16;63504.41;5049440;28;20198;-82
2022/04/01 01:41:25;;;;;;;38.13;6.68;;;;;;;14.57;59.53;63498.25;5049691;28;20561;-84
2022/04/01 01:43:54;;;;;;;52.25;7.55;;;;;;;14.61;59.75;63504.97;5048460;28;20397;-83
2022/04/01 01:46:21;;;;;;;52.95;8.25;;;;;;;14.53;59.60;63501.78;5050074;28;20202;-84
2022/04/01 01:48:48;;;;;;;33.17;9.00;;;;;;;14.63;59.11;63507.56;5050239;28;20217;-83
2022/04/01 01:56:47;;;;;;;50.20;7.70;;;;;;;14.64;59.41;63508.59;5027140;28;20229;-83
2022/04/01 01:59:16;;;;;;;63.60;9.13;;;;;;;14.71;58.43;63517.91;5055364;28;20193;-83
2022/04/01 02:01:45;;;;;;;47.47;8.77;;;;;;;14.61;58.78;63508.06;5048045;28;20273;-83
2022/04/01 02:04:12;;;;;;;37.40;7.63;;;;;;;14.70;58.14;63514.81;5044486;28;20190;-83
2022/04/01 02:06:40;;;;;;;36.00;7.30;;;;;;;14.76;57.64;63523.63;5051495;28;20198;-84
2022/04/01 02:09:06;;;;;;;35.38;8.20;;;;;;;14.61;58.95;63507.53;5049864;28;20483;-84
2022/04/01 02:11:34;;;;;;;42.05;8.02;;;;;;;14.61;58.77;63508.06;5044885;28;20197;-84
2022/04/01 02:14:01;;;;;;;55.53;7.97;;;;;;;14.66;59.00;63508.13;5034985;28;20206;-83
2022/04/01 02:16:29;;;;;;;38.10;8.10;;;;;;;14.68;59.07;63514.81;5048880;28;20190;-83
2022/04/01 02:18:56;;;;;;;46.05;8.15;;;;;;;14.67;58.69;63513.75;5047775;28;20214;-82
2022/04/01 02:21:22;;;;;;;41.50;8.20;;;;;;;14.66;58.85;63515.81;5048003;28;20198;-84
2022/04/01 02:23:51;;;;;;;51.38;8.00;;;;;;;14.61;58.96;63502.41;5049039;28;20197;-86
2022/04/01 02:26:18;;;;;;;40.00;8.25;;;;;;;14.44;59.75;63487.84;5048241;28;20382;-85
2022/04/01 02:28:46;;;;;;;39.55;10.55;;;;;;;14.54;59.12;63495.66;5039459;28;20229;-83
2022/04/01 02:31:14;;;;;;;44.00;8.02;;;;;;;14.52;59.22;63495.63;5047222;28;20238;-84
2022/04/01 02:33:43;;;;;;;49.85;10.13;;;;;;;14.66;57.94;63510.69;5048768;28;20613;-83
2022/04/01 02:36:11;;;;;;;50.70;7.82;;;;;;;14.64;57.50;63510.63;5047903;28;20206;-83
2022/04/01 02:38:40;;;;;;;39.75;8.77;;;;;;;14.68;57.36;63515.31;5048438;28;20218;-82
2022/04/01 02:41:08;;;;;;;31.45;7.00;;;;;;;14.74;57.70;63524.13;5049740;28;20538;-83
2022/04/01 02:43:36;;;;;;;43.33;8.60;;;;;;;14.64;57.81;63508.06;5050060;28;20224;-83
2022/04/01 02:46:05;;;;;;;48.40;8.07;;;;;;;14.72;57.88;63516.41;5035058;28;20210;-83
2022/04/01 02:48:32;;;;;;;46.22;9.45;;;;;;;14.70;57.77;63516.88;5037983;28;20281;-82
2022/04/01 02:51:00;;;;;;;35.50;7.97;;;;;;;14.73;57.67;63517.94;5048471;28;20249;-83
2022/04/01 02:53:27;;;;;;;37.70;7.50;;;;;;;14.71;57.49;63521.00;5050166;28;20232;-82
2022/04/01 02:55:54;;;;;;;37.13;7.68;;;;;;;14.74;57.49;63521.03;5044885;28;20220;-83
2022/04/01 02:58:21;;;;;;;42.75;8.52;;;;;;;14.73;57.26;63517.94;5055838;28;20228;-83
2022/04/01 03:00:48;;;;;;;42.03;7.28;;;;;;;14.86;57.01;63534.00;5051599;28;20228;-84
2022/04/01 03:03:15;;;;;;;54.15;11.32;;;;;;;14.78;57.05;63522.63;5052045;28;20229;-83
2022/04/01 03:05:43;;;;;;;37.55;7.72;;;;;;;14.81;57.03;63525.72;5052855;28;20202;-84
2022/04/01 03:08:12;;;;;;;41.00;9.25;;;;;;;14.82;56.67;63529.84;5054970;28;20244;-85
2022/04/01 03:10:42;;;;;;;34.55;8.27;;;;;;;14.86;56.09;63533.50;5053292;28;20233;-83
2022/04/01 03:13:09;;;;;;;35.65;8.10;;;;;;;14.85;56.50;63529.91;5053445;28;20226;-84
2022/04/01 03:15:36;;;;;;;51.42;10.00;;;;;;;14.81;56.76;63531.38;5042412;28;20202;-83
2022/04/01 03:18:03;;;;;;;32.58;7.80;;;;;;;14.78;56.44;63527.75;5035835;28;20222;-82
2022/04/01 03:20:32;;;;;;;56.95;10.07;;;;;;;14.82;55.68;63526.78;5034000;28;20198;-85
2022/04/01 03:22:59;;;;;;;43.30;8.63;;;;;;;14.84;55.21;63534.50;5053294;28;20213;-83
2022/04/01 03:25:32;;;;;;;56.08;9.90;;;;;;;14.89;54.96;63534.56;5050552;28;20210;-82
2022/04/01 03:28:01;;;;;;;43.35;9.82;;;;;;;14.90;54.85;63535.09;5052186;28;20597;-81
2022/04/01 03:30:28;;;;;;;61.38;9.93;;;;;;;14.92;54.81;63540.25;5051099;28;20275;-83
2022/04/01 03:32:56;;;;;;;37.42;7.90;;;;;;;14.99;54.53;63542.41;5047469;28;20230;-80
2022/04/01 03:35:24;;;;;;;53.03;9.02;;;;;;;15.11;53.46;63558.94;5050128;28;20198;-83
2022/04/01 03:37:51;;;;;;;54.30;9.52;;;;;;;15.03;53.55;63551.69;5052556;28;20285;-82
2022/04/01 03:40:18;;;;;;;64.15;9.75;;;;;;;15.10;53.43;63557.91;5051935;28;20206;-82
2022/04/01 03:42:50;;;;;;;50.35;10.40;;;;;;;15.05;53.50;63551.19;5052205;28;20222;-84
2022/04/01 03:45:17;;;;;;;44.90;9.45;;;;;;;15.15;52.54;63560.56;5052749;28;20244;-83
2022/04/01 03:47:52;;;;;;;49.63;8.82;;;;;;;15.20;52.44;63566.28;5051163;28;20233;-84
2022/04/01 03:50:29;;;;;;;70.85;9.93;;;;;;;15.12;52.21;63552.31;5032345;28;20256;-83
2022/04/01 03:53:02;;;;;;;45.88;8.73;;;;;;;15.22;51.80;63567.81;5046471;28;20275;-83
2022/04/01 03:55:32;;;;;;;59.95;10.48;;;;;;;15.24;51.53;63570.41;5052276;28;20194;-82
2022/04/01 03:58:06;;;;;;;44.83;8.88;;;;;;;15.26;51.31;63571.97;5051320;28;20242;-83
2022/04/01 04:00:33;;;;;;;45.35;9.60;;;;;;;15.30;51.20;63576.13;5051824;28;20198;-83
2022/04/01 04:03:06;;;;;;;46.35;10.27;;;;;;;15.32;50.98;63578.22;5052339;28;20226;-82
2022/04/01 04:05:34;;;;;;;56.42;11.02;;;;;;;15.35;51.45;63581.31;5052943;28;20198;-84
2022/04/01 04:08:02;;;;;;;59.22;9.90;;;;;;;15.11;51.69;63559.47;5052856;28;20226;-86
2022/04/01 04:10:30;;;;;;;47.08;8.35;;;;;;;15.41;50.77;63582.47;5042796;28;20234;-82
2022/04/01 04:12:58;;;;;;;56.80;9.25;;;;;;;15.40;51.37;63589.09;5055284;28;20225;-80
2022/04/01 04:15:29;;;;;;;55.63;10.93;;;;;;;15.35;51.16;63584.41;5050167;28;20251;-79
2022/04/01 04:18:00;;;;;;;68.40;10.00;;;;;;;15.38;51.10;63584.97;5048180;28;20546;-80
2022/04/01 04:20:35;;;;;;;64.55;9.73;;;;;;;15.38;50.76;63579.31;5048792;28;20232;-83
2022/04/01 04:23:10;;;;;;;57.40;9.90;;;;;;;15.45;50.67;63591.72;5052142;28;20205;-84
2022/04/01 04:25:39;;;;;;;55.90;9.98;;;;;;;15.48;50.53;63600.00;5051718;28;20201;-86
2022/04/01 04:28:10;;;;;;;67.68;9.63;;;;;;;15.42;50.71;63588.63;5051534;28;20244;-86
2022/04/01 04:30:39;;;;;;;50.22;9.07;;;;;;;15.39;50.97;63582.91;5050650;28;20252;-84
2022/04/01 04:33:08;;;;;;;54.85;9.30;;;;;;;15.42;49.96;63593.75;5051185;28;20233;-83
2022/04/01 04:35:38;;;;;;;65.28;12.38;;;;;;;15.59;49.37;63606.81;5051908;28;20265;-83
2022/04/01 04:38:06;;;;;;;45.90;9.50;;;;;;;15.59;49.88;63606.81;5047825;28;20216;-84
2022/04/01 04:40:34;;;;;;;53.80;9.65;;;;;;;15.61;49.91;63608.91;5051795;28;20206;-84
2022/04/01 04:43:01;;;;;;;62.72;9.70;;;;;;;15.74;49.52;63621.88;5040635;28;20223;-83
2022/04/01 04:45:29;;;;;;;55.05;9.18;;;;;;;15.73;49.62;63620.84;5049498;28;20244;-83
2022/04/01 04:47:59;;;;;;;46.60;9.55;;;;;;;15.73;49.85;63620.84;5049985;28;20237;-84
2022/04/01 04:50:26;;;;;;;68.28;12.23;;;;;;;15.76;49.15;63626.53;5050023;28;20236;-82
2022/04/01 04:52:54;;;;;;;60.80;11.95;;;;;;;15.74;48.98;63617.28;5053771;28;20237;-83
2022/04/01 04:55:23;;;;;;;55.15;9.65;;;;;;;15.88;48.74;63639.00;5055773;28;20247;-84
2022/04/01 04:57:52;;;;;;;62.38;11.75;;;;;;;15.82;49.25;63635.34;5056470;28;20217;-85
2022/04/01 05:00:21;;;;;;;59.15;10.65;;;;;;;15.81;49.40;63626.59;5054615;28;20202;-84
2022/04/01 05:03:08;;;;;;;57.03;10.18;;;;;;;15.75;49.34;63628.59;5054526;28;20229;-84
2022/04/01 05:05:41;;;;;;;60.80;10.05;;;;;;;15.80;48.47;63626.09;5053196;28;20236;-84
2022/04/01 05:08:16;;;;;;;44.85;9.30;;;;;;;16.06;48.06;63660.31;5052224;28;20244;-84
2022/04/01 05:10:52;;;;;;;66.35;11.60;;;;;;;16.05;48.03;63654.13;5032933;28;20234;-85
2022/04/01 05:13:42;;;;;;;61.38;10.15;;;;;;;16.16;47.71;63666.09;5045361;28;20229;-85
2022/04/01 05:16:19;;;;;;;51.97;9.90;;;;;;;16.25;47.87;63674.41;5054130;28;20284;-86
2022/04/01 05:18:54;;;;;;;56.28;7.88;;;;;;;16.06;49.74;63657.72;5052718;28;20225;-84
2022/04/01 05:21:24;;;;;;;49.25;10.18;;;;;;;15.70;51.76;63620.81;5054580;28;20201;-84
2022/04/01 05:23:55;;;;;;;35.17;7.50;;;;;;;15.60;53.74;63610.41;5054207;28;20208;-84
2022/04/01 05:26:38;;;;;;;40.13;9.00;;;;;;;15.08;53.98;63551.22;5044378;28;20221;-83
2022/04/01 05:29:10;;;;;;;55.72;8.50;;;;;;;14.57;58.59;63498.75;5041637;28;20206;-84
2022/04/01 05:31:46;;;;;;;44.03;7.80;;;;;;;14.08;60.79;63452.47;5037813;28;20256;-85
2022/04/01 05:34:21;;;;;;;40.13;7.00;;;;;;;13.92;62.74;63436.38;5049461;28;20259;-82
2022/04/01 05:36:50;;;;;;;43.35;8.00;;;;;;;13.85;63.29;63429.63;5055756;28;20233;-82
2022/04/01 05:39:18;;;;;;;39.30;8.15;;;;;;;13.91;63.43;63433.28;5050945;28;20198;-81
2022/04/01 05:41:46;;;;;;;45.60;7.80;;;;;;;13.87;63.93;63431.19;5057338;28;20225;-82
2022/04/01 05:44:14;;;;;;;46.65;8.10;;;;;;;13.52;66.39;63395.38;5054190;28;20198;-81
2022/04/01 05:46:42;;;;;;;39.88;8.63;;;;;;;13.38;68.00;63382.88;5054060;28;20206;-80
2022/04/01 05:49:10;;;;;;;51.65;8.38;;;;;;;13.61;67.50;63402.16;5051209;28;20217;-82
2022/04/01 05:51:39;;;;;;;36.13;7.43;;;;;;;13.71;66.89;63412.03;5051546;28;20233;-80
2022/04/01 05:54:08;;;;;;;35.38;8.25;;;;;;;13.73;67.03;63414.09;5050602;28;20224;-80
2022/04/01 05:56:37;;;;;;;32.47;7.45;;;;;;;13.98;66.73;63439.53;5051396;28;20202;-80
2022/04/01 05:59:04;;;;;;;36.05;7.88;;;;;;;13.92;66.78;63441.50;5051612;28;20499;-80
2022/04/01 06:01:42;;;;;;;38.70;9.18;;;;;;;13.88;67.54;63430.19;5050674;28;20261;-82
2022/04/01 06:04:35;;;;;;;43.97;8.35;;;;;;;14.08;66.11;63452.97;5052166;28;20245;-80
2022/04/01 06:07:10;;;;;;;38.63;8.68;;;;;;;14.32;65.31;63482.53;5052635;28;20218;-81
2022/04/01 06:09:47;;;;;;;39.90;7.82;;;;;;;14.31;64.31;63476.38;5051850;28;20236;-79
2022/04/01 06:12:25;;;;;;;43.08;7.45;;;;;;;14.55;63.74;63501.28;5038817;28;20257;-81
2022/04/01 06:15:00;;;;;;;42.38;8.90;;;;;;;14.78;63.15;63528.28;5049560;28;20190;-81
2022/04/01 06:17:42;;;;;;;37.15;7.22;;;;;;;15.00;62.23;63545.47;5053171;28;20213;-81
2022/04/01 06:20:09;;;;;;;38.35;8.73;;;;;;;15.10;61.77;63552.78;5051857;28;20201;-80
2022/04/01 06:22:48;;;;;;;43.97;9.68;;;;;;;15.12;61.48;63557.44;5051148;28;20225;-84
2022/04/01 06:25:20;;;;;;;47.40;7.68;;;;;;;14.99;61.44;63547.00;5050216;28;20251;-86
2022/04/01 06:27:49;;;;;;;37.35;7.43;;;;;;;15.03;62.27;63549.13;5050276;28;20256;-85
2022/04/01 06:30:18;;;;;;;40.10;9.50;;;;;;;15.15;62.71;63563.63;5049883;28;20236;-84
2022/04/01 06:32:54;;;;;;;58.40;9.45;;;;;;;15.16;61.63;63566.72;5051212;28;20550;-85
2022/04/01 06:35:28;;;;;;;40.83;6.95;;;;;;;15.32;61.25;63583.34;5049043;28;20194;-85
2022/04/01 06:37:59;;;;;;;41.50;8.45;;;;;;;15.26;60.54;63574.53;5043673;28;20242;-85
2022/04/01 06:40:30;;;;;;;47.97;9.02;;;;;;;15.07;61.91;63557.88;5052780;28;20198;-85
2022/04/01 06:42:58;;;;;;;59.25;7.78;;;;;;;15.66;52.40;63616.13;5051185;28;20232;-84
2022/04/01 06:45:25;;;;;;;39.38;7.55;;;;;;;15.95;54.54;63644.25;5042410;28;20206;-84
2022/04/01 06:47:52;;;;;;;39.28;8.38;;;;;;;15.85;55.68;63636.41;5033972;28;20392;-85
2022/04/01 06:50:20;;;;;;;42.00;8.00;;;;;;;16.30;47.51;63680.13;5033993;28;20254;-84
2022/04/01 06:52:48;;;;;;;47.22;9.25;;;;;;;16.68;51.06;63721.72;5050975;28;20221;-84
2022/04/01 06:55:17;;;;;;;50.15;8.88;;;;;;;17.05;45.35;63755.09;5053255;28;20197;-84
2022/04/01 06:57:44;;;;;;;65.25;9.73;;;;;;;17.43;46.39;63799.28;5052798;28;20220;-85
2022/04/01 07:00:13;;;;;;;58.75;9.18;;;;;;;17.78;43.64;63833.69;5051330;28;20375;-84
2022/04/01 07:02:41;;;;;;;43.45;8.02;;;;;;;18.08;41.65;63864.94;5052636;28;20225;-85
2022/04/01 07:05:08;;;;;;;40.40;7.90;;;;;;;18.29;40.94;63886.78;5052482;28;20228;-85
2022/04/01 07:07:36;;;;;;;48.65;9.20;;;;;;;18.49;41.56;63909.72;5055333;28;20221;-86
2022/04/01 07:10:03;;;;;;;41.30;9.25;;;;;;;18.70;41.68;63934.19;5055595;28;20263;-87
2022/04/01 07:12:33;;;;;;;57.20;9.45;;;;;;;18.87;40.58;63948.78;5055604;28;20233;-85
2022/04/01 07:15:00;;;;;;;49.65;10.32;;;;;;;18.99;40.23;63958.72;5055620;28;20198;-85
2022/04/01 07:17:27;;;;;;;56.72;9.02;;;;;;;19.06;39.91;63963.44;5053763;28;20221;-85
2022/04/01 07:19:54;;;;;;;51.38;7.80;;;;;;;19.01;40.58;63960.81;5052741;28;20204;-86
2022/04/01 07:22:21;;;;;;;53.72;8.30;;;;;;;19.10;39.75;63972.78;5052636;28;20214;-87
2022/04/01 07:24:48;;;;;;;53.40;8.60;;;;;;;19.22;39.99;63982.72;5051297;28;20205;-85
2022/04/01 07:27:15;;;;;;;55.55;9.10;;;;;;;19.26;40.93;63987.41;5034850;28;20264;-86
2022/04/01 07:29:44;;;;;;;46.92;9.50;;;;;;;19.35;39.60;63996.28;5032738;28;20198;-86
2022/04/01 07:34:55;;;;;;;56.78;8.00;;;;;;;19.49;39.62;64013.47;5052843;28;20199;-85
2022/04/01 07:37:24;;;;;;;64.97;8.65;;;;;;;19.31;38.72;63992.63;5052441;28;20213;-85
2022/04/01 07:39:51;;;;;;;47.97;9.00;;;;;;;19.45;39.45;64004.13;5053303;28;20212;-85
2022/04/01 07:42:20;;;;;;;46.10;7.72;;;;;;;19.37;39.25;64006.13;5051498;28;20226;-85
2022/04/01 07:44:48;;;;;;;59.58;9.27;;;;;;;19.46;39.16;64010.88;5053013;28;20202;-85
2022/04/01 07:47:18;;;;;;;48.70;7.78;;;;;;;19.60;38.44;64024.94;5052061;28;20221;-84
2022/04/01 07:49:46;;;;;;;42.08;9.73;;;;;;;19.54;39.08;64016.63;5053815;28;20508;-85
2022/04/01 07:52:14;;;;;;;61.63;9.65;;;;;;;19.61;39.10;64022.88;5052601;28;20229;-85
2022/04/01 07:54:44;;;;;;;54.17;9.95;;;;;;;19.70;39.49;64040.00;5053701;28;20212;-85
2022/04/01 07:57:13;;;;;;;50.78;8.07;;;;;;;19.75;38.10;64040.06;5052618;28;20267;-85
2022/04/01 07:59:41;;;;;;;46.83;8.13;;;;;;;19.80;39.06;64045.28;5059141;28;20185;-85
2022/04/01 08:02:09;;;;;;;46.58;9.57;;;;;;;19.74;38.65;64036.44;5058646;28;20252;-85
2022/04/01 08:04:37;;;;;;;40.75;8.10;;;;;;;19.84;39.26;64049.44;5059067;28;20198;-85
2022/04/01 08:07:04;;;;;;;39.55;7.93;;;;;;;19.88;39.08;64054.13;5059335;28;20220;-85
2022/04/01 08:09:33;;;;;;;50.88;7.45;;;;;;;19.78;38.79;64043.72;5058054;28;20221;-83
2022/04/01 08:12:00;;;;;;;46.47;8.88;;;;;;;20.11;39.42;64080.19;5052279;28;20296;-84
2022/04/01 08:14:28;;;;;;;37.08;8.85;;;;;;;19.88;38.60;64061.38;5055301;28;20198;-85
2022/04/01 08:16:56;;;;;;;45.97;8.02;;;;;;;19.87;38.97;64052.56;5054055;28;20227;-84
2022/04/01 08:19:25;;;;;;;41.83;8.40;;;;;;;19.79;40.13;64044.75;5055322;28;20197;-85
2022/04/01 08:21:52;;;;;;;36.45;8.10;;;;;;;19.93;39.55;64059.34;5051988;28;20217;-85
2022/04/01 08:24:19;;;;;;;48.25;9.70;;;;;;;19.84;39.20;64049.44;5051783;28;20209;-85
2022/04/01 08:26:47;;;;;;;38.05;8.32;;;;;;;20.00;38.80;64066.16;5051546;28;20231;-85
2022/04/01 08:29:15;;;;;;;38.97;8.88;;;;;;;19.87;39.32;64058.28;5053181;28;20194;-84
2022/04/01 08:31:43;;;;;;;45.45;7.75;;;;;;;20.07;39.54;64073.44;5052341;28;20229;-84
2022/04/01 08:34:10;;;;;;;51.03;8.45;;;;;;;19.76;39.30;64041.63;5050905;28;20197;-85
2022/04/01 08:36:39;;;;;;;45.85;8.13;;;;;;;19.74;39.66;64036.44;5050550;28;20197;-84
2022/04/01 08:39:06;;;;;;;39.50;7.00;;;;;;;19.60;39.57;64027.00;5034556;28;20395;-85
2022/04/01 08:41:33;;;;;;;46.72;8.30;;;;;;;19.47;39.90;64008.78;5031441;28;20198;-85
2022/04/01 08:44:01;;;;;;;37.05;8.07;;;;;;;19.48;39.87;64012.94;5043506;28;20249;-84
2022/04/01 08:46:29;;;;;;;36.08;8.30;;;;;;;19.20;40.56;63981.16;5037048;28;20202;-85
2022/04/01 08:48:56;;;;;;;31.05;8.65;;;;;;;19.13;41.71;63973.31;5051397;28;20557;-85
2022/04/01 08:51:24;;;;;;;37.95;8.50;;;;;;;19.08;41.05;63971.22;5051178;28;20235;-85
2022/04/01 08:53:52;;;;;;;41.22;7.00;;;;;;;19.17;41.46;63982.66;5050516;28;20202;-85
2022/04/01 08:56:22;;;;;;;30.63;6.60;;;;;;;18.68;42.36;63926.94;5051898;28;20273;-85
2022/04/01 08:58:49;;;;;;;43.20;8.50;;;;;;;18.69;42.83;63924.88;5053280;28;20296;-86
2022/04/01 09:01:16;;;;;;;36.22;8.25;;;;;;;18.54;43.97;63914.94;5051298;28;20374;-86
2022/04/01 09:03:45;;;;;;;47.25;8.70;;;;;;;18.69;44.17;63930.03;5031836;28;20557;-84
2022/04/01 09:06:11;;;;;;;43.75;8.93;;;;;;;18.67;43.68;63923.31;5050616;28;20497;-85
2022/04/01 09:08:40;;;;;;;35.88;9.20;;;;;;;18.63;43.61;63926.88;5050374;28;20221;-83
2022/04/01 09:11:10;;;;;;;60.35;9.00;;;;;;;18.66;44.39;63921.75;5053658;28;20197;-85
2022/04/01 09:13:49;;;;;;;38.30;8.65;;;;;;;18.66;45.27;63932.06;5053630;28;20216;-85
2022/04/01 09:16:30;;;;;;;31.17;9.43;;;;;;;18.61;44.92;63919.66;5051951;28;20196;-86
2022/04/01 09:18:59;;;;;;;59.70;7.13;;;;;;;18.65;44.44;63928.97;5051104;28;20199;-86
2022/04/01 09:21:28;;;;;;;41.28;6.78;;;;;;;18.20;45.14;63882.59;5050453;28;20232;-88
2022/04/01 09:23:56;;;;;;;44.15;9.07;;;;;;;18.28;45.13;63888.34;5051747;28;20279;-87
2022/04/01 09:26:32;;;;;;;44.55;7.57;;;;;;;18.51;43.85;63911.28;5051245;28;20419;-87
2022/04/01 09:31:42;;;;;;;32.85;7.25;;;;;;;18.84;43.66;63943.09;5107010;22;20231;-85
2022/04/01 09:34:13;;;;;;;43.92;7.93;;;;;;;18.92;42.95;63954.00;5073893;28;20193;-85
2022/04/01 09:36:44;;;;;;;44.85;8.45;;;;;;;19.08;42.80;63966.06;5072703;28;20200;-86
2022/04/01 09:39:12;;;;;;;36.75;7.70;;;;;;;19.04;42.23;63969.63;5053231;28;20256;-87
2022/04/01 09:41:43;;;;;;;31.58;7.97;;;;;;;19.04;42.37;63972.22;5059027;28;20200;-86
2022/04/01 09:44:15;;;;;;;42.72;8.02;;;;;;;18.99;42.00;63959.25;5074499;28;20181;-86
2022/04/01 09:46:44;;;;;;;37.35;7.65;;;;;;;19.12;42.32;63974.88;5074325;28;20217;-88
2022/04/01 09:49:13;;;;;;;47.33;9.63;;;;;;;19.02;42.37;63964.97;5072544;28;20201;-87
2022/04/01 09:51:45;;;;;;;29.17;5.80;;;;;;;18.96;42.59;63955.59;5072594;28;20406;-86
2022/04/01 09:54:12;;;;;;;37.20;7.32;;;;;;;18.66;42.08;63922.28;5069916;28;20200;-86
2022/04/01 09:56:44;;;;;;;43.53;7.95;;;;;;;18.88;42.01;63950.34;5070778;28;20188;-86
2022/04/01 09:59:12;;;;;;;32.25;7.10;;;;;;;18.90;41.76;63952.44;5070016;28;20196;-88
2022/04/01 10:01:41;;;;;;;32.90;7.38;;;;;;;18.92;41.42;63954.00;5068356;28;20256;-88
2022/04/01 10:04:09;;;;;;;37.70;7.47;;;;;;;19.48;40.85;64009.84;5067943;28;20200;-87
2022/04/01 10:06:39;;;;;;;36.38;7.30;;;;;;;19.46;40.18;64010.34;5069029;28;20223;-86
2022/04/01 10:09:08;;;;;;;37.75;6.72;;;;;;;19.61;40.33;64023.41;5069476;28;20506;-86
2022/04/01 10:11:47;;;;;;;44.17;6.88;;;;;;;19.64;39.88;64026.50;5069762;28;20454;-84
2022/04/01 10:14:17;;;;;;;35.60;7.45;;;;;;;19.78;39.96;64048.88;5071517;28;20196;-85
2022/04/01 10:16:46;;;;;;;30.75;7.32;;;;;;;19.78;39.10;64043.72;5073555;28;20246;-83
2022/04/01 10:19:15;;;;;;;40.45;7.28;;;;;;;19.84;39.22;64049.97;5073750;28;20246;-86
2022/04/01 10:21:44;;;;;;;39.72;5.90;;;;;;;19.77;39.61;64040.09;5073046;28;20539;-83
2022/04/01 10:24:28;;;;;;;35.95;6.88;;;;;;;19.65;39.36;64029.63;5073981;28;20189;-86
2022/04/01 10:27:10;;;;;;;31.30;7.07;;;;;;;19.71;39.96;64030.72;5075235;28;20438;-88
2022/04/01 10:29:38;;;;;;;38.00;6.97;;;;;;;19.78;39.75;64040.59;5058736;28;20252;-85
2022/04/01 10:32:23;;;;;;;40.50;7.50;;;;;;;19.84;39.88;64044.28;5076701;28;20231;-85
2022/04/01 10:34:50;;;;;;;43.88;8.00;;;;;;;19.81;39.71;64046.31;5079256;28;20203;-84
2022/04/01 10:37:18;;;;;;;24.02;5.53;;;;;;;20.01;39.36;64067.72;5080447;28;20248;-86
2022/04/01 10:39:53;;;;;;;37.97;6.95;;;;;;;20.08;39.21;64074.50;5079805;28;20212;-84
2022/04/01 10:42:25;;;;;;;23.85;6.70;;;;;;;20.01;39.40;64067.72;5081208;28;20202;-84
2022/04/01 10:44:54;;;;;;;26.42;6.50;;;;;;;19.87;38.66;64055.69;5079836;28;20197;-84
2022/04/01 10:47:23;;;;;;;38.40;5.40;;;;;;;19.82;38.47;64044.78;5078481;28;20220;-85
2022/04/01 10:52:35;;;;;;;29.27;6.60;;;;;;;19.93;38.31;64061.94;5074544;28;20231;-84
2022/04/01 10:55:11;;;;;;;35.88;6.32;;;;;;;19.80;38.62;64042.69;5074491;28;20235;-87
2022/04/01 10:57:45;;;;;;;34.83;6.35;;;;;;;19.91;37.75;64057.28;5071883;28;20220;-85
2022/04/01 11:00:15;;;;;;;24.60;5.70;;;;;;;19.91;37.42;64059.88;5073160;28;20278;-85
2022/04/01 11:02:44;;;;;;;31.25;5.32;;;;;;;20.02;36.95;64065.66;5073213;28;20246;-84
2022/04/01 11:05:27;;;;;;;30.42;5.57;;;;;;;20.00;37.21;64063.56;5074295;28;20196;-84
2022/04/01 11:08:19;;;;;;;26.33;6.85;;;;;;;20.10;38.12;64077.09;5072547;28;20221;-85
2022/04/01 11:11:15;;;;;;;27.45;5.60;;;;;;;20.35;37.34;64100.63;5219311;22;20249;-85
2022/04/01 11:14:03;;;;;;;34.28;5.85;;;;;;;20.45;37.22;64113.63;5057974;28;20490;-84
2022/04/01 11:16:46;;;;;;;27.90;6.95;;;;;;;20.82;36.41;64151.22;5055084;28;20260;-84
2022/04/01 11:19:22;;;;;;;20.38;4.80;;;;;;;21.02;36.06;64169.53;5052999;28;20190;-85
2022/04/01 11:22:01;;;;;;;21.90;5.50;;;;;;;21.49;35.16;64218.59;5054960;28;20339;-85
2022/04/01 11:28:05;;;;;;;22.85;5.65;;;;;;;21.24;36.05;64198.22;5064031;28;20235;-84
2022/04/01 11:33:57;;;;;;;31.55;6.00;;;;;;;21.23;36.38;64191.44;5068398;28;21239;-85
2022/04/01 11:36:25;;;;;;;28.90;6.28;;;;;;;21.20;36.33;64194.03;5063763;28;20235;-86
2022/04/01 11:38:52;;;;;;;33.33;6.13;;;;;;;21.10;36.31;64177.88;5070856;28;20212;-86
2022/04/01 11:41:19;;;;;;;31.98;6.45;;;;;;;20.93;37.35;64162.72;5057701;28;20209;-86
2022/04/01 11:43:46;;;;;;;27.52;5.40;;;;;;;21.17;36.82;64187.78;5070496;28;20263;-84
2022/04/01 11:46:15;;;;;;;19.73;6.30;;;;;;;21.06;36.21;64173.69;5073028;28;20207;-84
2022/04/01 11:48:45;;;;;;;22.50;5.60;;;;;;;21.22;36.09;64193.53;5074514;28;20275;-84
2022/04/01 11:51:15;;;;;;;28.95;5.75;;;;;;;21.16;35.71;64187.25;5074672;28;20448;-85
2022/04/01 11:53:45;;;;;;;29.88;5.28;;;;;;;21.28;36.12;64199.25;5065153;28;20229;-85
2022/04/01 11:56:14;;;;;;;24.77;5.88;;;;;;;20.81;36.93;64145.53;5062021;28;20266;-87
2022/04/01 11:58:53;;;;;;;27.95;5.10;;;;;;;20.43;36.89;64111.03;5069792;28;20209;-87